Time;durP1;ratioP1;P1;durP2;ratioP2;P2;SDS_P1;SDS_P2;PMS_P1;PMS_P2;Temp;Humidity;BMP_temperature;BMP_pressure;BME280_temperature;BME280_humidity;BME280_pressure;Samples;Min_cycle;Max_cycle;Signal;HPM_P1;HPM_P2
2024/03/28 00:00:47;;;;;;;6.82;3.90;;;12.80;85.30;;;;;;4972017;28;20464;-75
2024/03/28 00:03:13;;;;;;;5.88;3.45;;;12.90;85.40;;;;;;4972217;28;20476;-75
2024/03/28 00:05:38;;;;;;;7.35;4.53;;;12.80;85.30;;;;;;4973282;28;20029;-75
2024/03/28 00:08:04;;;;;;;6.68;3.90;;;12.80;85.30;;;;;;4974706;28;20563;-75
2024/03/28 00:10:30;;;;;;;6.50;3.95;;;12.80;85.40;;;;;;4975730;28;20034;-75
2024/03/28 00:12:56;;;;;;;6.70;4.00;;;12.80;85.40;;;;;;4977396;28;20027;-75
2024/03/28 00:15:21;;;;;;;5.80;3.55;;;12.80;85.40;;;;;;4975796;28;20019;-76
2024/03/28 00:17:48;;;;;;;6.80;4.00;;;12.80;85.40;;;;;;4976669;28;20164;-75
2024/03/28 00:20:13;;;;;;;6.07;3.88;;;12.80;85.40;;;;;;4975592;28;20027;-75
2024/03/28 00:22:39;;;;;;;6.60;3.88;;;12.90;85.40;;;;;;4976947;28;20207;-75
2024/03/28 00:25:05;;;;;;;6.97;3.70;;;12.80;85.40;;;;;;4976716;28;20018;-75
2024/03/28 00:27:31;;;;;;;7.10;4.15;;;12.80;85.40;;;;;;4976582;28;20019;-75
2024/03/28 00:29:57;;;;;;;6.53;3.80;;;12.80;85.40;;;;;;4976713;28;20053;-75
2024/03/28 00:32:22;;;;;;;6.43;3.72;;;12.90;85.50;;;;;;4976900;28;20022;-77
2024/03/28 00:34:48;;;;;;;6.47;3.83;;;12.90;85.50;;;;;;4976751;28;20099;-75
2024/03/28 00:37:13;;;;;;;6.60;3.92;;;12.80;85.40;;;;;;4974976;28;20042;-75
2024/03/28 00:39:39;;;;;;;6.60;3.90;;;12.80;85.40;;;;;;4975226;28;20031;-76
2024/03/28 00:42:04;;;;;;;6.28;3.63;;;12.80;85.40;;;;;;4975237;28;20027;-75
2024/03/28 00:44:30;;;;;;;6.60;4.00;;;12.90;85.50;;;;;;4976270;28;20077;-75
2024/03/28 00:46:55;;;;;;;6.57;3.80;;;12.90;85.50;;;;;;4975173;28;20030;-75
2024/03/28 00:49:21;;;;;;;6.90;4.00;;;12.80;85.40;;;;;;4976720;28;20085;-75
2024/03/28 00:51:47;;;;;;;6.63;3.72;;;12.90;85.50;;;;;;4975085;28;20090;-75
2024/03/28 00:54:12;;;;;;;5.95;3.47;;;12.90;85.50;;;;;;4976401;28;20026;-75
2024/03/28 00:56:39;;;;;;;6.75;3.90;;;12.80;85.40;;;;;;4976103;28;20026;-75
2024/03/28 00:59:04;;;;;;;6.53;3.78;;;12.80;85.50;;;;;;4976213;28;20027;-77
2024/03/28 01:01:30;;;;;;;7.40;4.40;;;12.80;85.50;;;;;;4975036;28;20066;-77
2024/03/28 01:03:56;;;;;;;6.72;3.90;;;12.90;85.50;;;;;;4975312;28;20069;-77
2024/03/28 01:06:21;;;;;;;6.40;3.97;;;12.70;85.40;;;;;;4976744;28;20076;-77
2024/03/28 01:08:47;;;;;;;6.70;3.80;;;12.70;85.40;;;;;;4975027;28;20030;-77
2024/03/28 01:11:13;;;;;;;6.38;3.72;;;12.90;85.60;;;;;;4974658;28;20027;-78
2024/03/28 01:13:40;;;;;;;6.53;4.20;;;12.80;85.40;;;;;;4975878;28;20173;-77
2024/03/28 01:16:06;;;;;;;7.32;3.95;;;12.90;85.50;;;;;;4975796;28;20472;-77
2024/03/28 01:18:32;;;;;;;5.97;3.50;;;12.80;85.50;;;;;;4974275;28;20023;-76
2024/03/28 01:21:03;;;;;;;7.45;4.30;;;12.80;85.50;;;;;;4975528;28;20041;-76
2024/03/28 01:23:30;;;;;;;6.15;3.35;;;12.90;85.60;;;;;;4974801;28;20070;-77
2024/03/28 01:25:56;;;;;;;5.80;3.50;;;12.90;85.60;;;;;;4974596;28;20026;-76
2024/03/28 01:28:22;;;;;;;6.68;3.88;;;12.80;85.60;;;;;;4975827;28;20069;-78
2024/03/28 01:30:47;;;;;;;6.95;4.03;;;12.90;85.60;;;;;;4975627;28;20027;-77
2024/03/28 01:33:13;;;;;;;6.68;3.90;;;12.90;85.60;;;;;;4975904;28;20105;-77
2024/03/28 01:35:38;;;;;;;6.80;3.85;;;12.90;85.60;;;;;;4974472;28;20034;-77
2024/03/28 01:38:04;;;;;;;6.47;3.55;;;12.80;85.50;;;;;;4974694;28;20476;-77
2024/03/28 01:40:30;;;;;;;6.53;3.95;;;12.80;85.50;;;;;;4975723;28;20045;-77
2024/03/28 01:43:07;;;;;;;6.78;3.85;;;12.80;85.50;;;;;;4975645;28;20027;-77
2024/03/28 01:45:34;;;;;;;6.40;3.80;;;12.80;85.60;;;;;;4974184;28;20023;-77
2024/03/28 01:48:00;;;;;;;6.40;3.80;;;12.70;85.50;;;;;;4974188;28;20749;-78
2024/03/28 01:50:28;;;;;;;6.10;3.58;;;12.80;85.60;;;;;;4975352;28;20022;-78
2024/03/28 01:52:53;;;;;;;6.25;3.72;;;12.80;85.60;;;;;;4975507;28;20082;-79
2024/03/28 01:55:20;;;;;;;6.40;3.70;;;12.90;85.60;;;;;;4974527;28;20214;-77
2024/03/28 01:57:47;;;;;;;5.60;3.42;;;12.90;85.60;;;;;;4974158;28;20034;-77
2024/03/28 02:00:13;;;;;;;7.22;3.85;;;12.80;85.50;;;;;;4975248;28;20050;-78
2024/03/28 02:02:40;;;;;;;6.47;3.60;;;12.80;85.60;;;;;;4973650;28;20077;-77
2024/03/28 02:05:06;;;;;;;5.82;3.33;;;12.80;85.60;;;;;;4975504;28;20419;-78
2024/03/28 02:07:32;;;;;;;6.45;3.78;;;12.80;85.60;;;;;;4975304;28;20031;-78
2024/03/28 02:09:58;;;;;;;6.63;4.00;;;12.80;85.60;;;;;;4974113;28;20407;-77
2024/03/28 02:12:24;;;;;;;6.20;3.67;;;12.70;85.50;;;;;;4975224;28;20106;-77
2024/03/28 02:14:50;;;;;;;6.85;4.10;;;12.80;85.60;;;;;;4973649;28;20372;-77
2024/03/28 02:17:15;;;;;;;6.80;4.03;;;12.90;85.70;;;;;;4974308;28;20073;-77
2024/03/28 02:19:41;;;;;;;6.78;4.10;;;12.90;85.60;;;;;;4974662;28;20026;-78
2024/03/28 02:22:06;;;;;;;7.20;4.10;;;12.80;85.60;;;;;;4973222;28;20105;-78
2024/03/28 02:24:34;;;;;;;6.78;4.00;;;12.80;85.60;;;;;;4974543;28;20022;-77
2024/03/28 02:26:59;;;;;;;7.00;4.00;;;12.80;85.60;;;;;;4974830;28;20054;-78
2024/03/28 02:29:25;;;;;;;6.50;3.75;;;12.80;85.60;;;;;;4972720;28;20065;-77
2024/03/28 02:31:51;;;;;;;6.50;3.90;;;12.70;85.50;;;;;;4973066;28;20022;-78
2024/03/28 02:34:16;;;;;;;7.20;4.40;;;12.80;85.60;;;;;;4974586;28;20030;-78
2024/03/28 02:36:42;;;;;;;7.00;4.00;;;12.80;85.60;;;;;;4973979;28;20026;-77
2024/03/28 02:39:07;;;;;;;6.28;3.83;;;12.70;85.60;;;;;;4972753;28;20474;-77
2024/03/28 02:41:33;;;;;;;7.45;4.28;;;12.90;85.70;;;;;;4972699;28;20105;-78
2024/03/28 02:43:58;;;;;;;6.78;4.22;;;12.80;85.70;;;;;;4974584;28;20027;-77
2024/03/28 02:46:24;;;;;;;6.95;3.90;;;12.70;85.60;;;;;;4974505;28;20031;-77
2024/03/28 02:48:50;;;;;;;6.75;3.75;;;12.80;85.60;;;;;;4974133;28;20023;-77
2024/03/28 02:51:15;;;;;;;6.72;4.03;;;12.80;85.60;;;;;;4972611;28;20108;-78
2024/03/28 02:53:41;;;;;;;6.97;4.25;;;12.80;85.70;;;;;;4974453;28;20030;-77
2024/03/28 02:56:06;;;;;;;6.10;3.63;;;12.80;85.70;;;;;;4974166;28;20037;-77
2024/03/28 02:58:32;;;;;;;6.97;4.20;;;12.80;85.70;;;;;;4989239;28;20023;-77
2024/03/28 03:01:02;;;;;;;6.70;3.90;;;12.80;85.70;;;;;;4974569;28;20530;-77
2024/03/28 03:03:27;;;;;;;6.88;4.15;;;12.80;85.70;;;;;;4975102;28;20097;-77
2024/03/28 03:05:53;;;;;;;6.43;3.90;;;12.80;85.70;;;;;;4974343;28;20041;-77
2024/03/28 03:08:19;;;;;;;6.50;3.97;;;12.80;85.70;;;;;;4972829;28;20039;-77
2024/03/28 03:10:45;;;;;;;7.05;4.00;;;12.90;85.80;;;;;;4973934;28;20558;-78
2024/03/28 03:13:11;;;;;;;6.50;4.03;;;12.80;85.70;;;;;;4973979;28;20360;-76
2024/03/28 03:15:36;;;;;;;6.60;3.80;;;12.80;85.70;;;;;;4972624;28;20062;-78
2024/03/28 03:18:02;;;;;;;6.55;4.07;;;12.80;85.70;;;;;;4973711;28;20053;-77
2024/03/28 03:20:28;;;;;;;6.85;3.92;;;12.80;85.70;;;;;;4973984;28;20026;-78
2024/03/28 03:23:04;;;;;;;7.53;4.60;;;12.80;85.80;;;;;;4988912;28;20411;-76
2024/03/28 03:25:41;;;;;;;6.63;3.83;;;12.80;85.70;;;;;;4972745;28;20051;-75
2024/03/28 03:36:30;;;;;;;6.70;3.83;;;12.80;85.70;;;;;;4973761;28;20042;-77
2024/03/28 03:38:56;;;;;;;6.60;4.10;;;12.80;85.70;;;;;;4972478;28;20023;-77
2024/03/28 03:41:21;;;;;;;6.60;4.05;;;12.80;85.70;;;;;;4988249;28;20460;-77
2024/03/28 03:43:47;;;;;;;6.70;3.95;;;12.80;85.70;;;;;;4976254;28;20030;-77
2024/03/28 03:46:13;;;;;;;6.72;3.97;;;12.80;85.70;;;;;;4977668;28;20026;-78
2024/03/28 03:48:38;;;;;;;6.68;3.83;;;12.70;85.70;;;;;;4976489;28;20106;-77
2024/03/28 03:51:04;;;;;;;7.22;4.35;;;12.80;85.70;;;;;;4977104;28;20392;-77
2024/03/28 03:53:29;;;;;;;6.68;3.50;;;12.80;85.70;;;;;;4976301;28;20201;-77
2024/03/28 03:55:58;;;;;;;6.20;3.60;;;12.70;85.70;;;;;;4976229;28;20038;-78
2024/03/28 03:58:24;;;;;;;7.03;4.13;;;12.80;85.70;;;;;;4977445;28;20054;-77
2024/03/28 04:00:49;;;;;;;6.85;3.88;;;12.90;85.80;;;;;;4975679;28;20550;-78
2024/03/28 04:06:37;;;;;;;6.60;4.00;;;12.80;85.70;;;;;;4975346;28;20467;-76
2024/03/28 04:09:03;;;;;;;6.88;4.05;;;12.80;85.80;;;;;;4975287;28;20047;-77
2024/03/28 04:11:28;;;;;;;6.75;4.00;;;12.80;85.80;;;;;;4976729;28;20026;-77
2024/03/28 04:13:54;;;;;;;7.28;4.10;;;12.80;85.80;;;;;;4976967;28;20026;-77
2024/03/28 04:16:19;;;;;;;7.18;4.05;;;12.70;85.70;;;;;;4992145;28;20058;-77
2024/03/28 04:18:45;;;;;;;6.93;4.22;;;12.90;85.80;;;;;;4976773;28;20030;-77
2024/03/28 04:21:10;;;;;;;6.25;3.80;;;12.80;85.80;;;;;;4975368;28;20031;-78
2024/03/28 04:23:36;;;;;;;6.18;3.75;;;12.80;85.80;;;;;;4976839;28;20122;-77
2024/03/28 04:26:02;;;;;;;6.57;3.80;;;12.80;85.80;;;;;;4975647;28;20037;-76
2024/03/28 04:28:27;;;;;;;6.97;4.03;;;12.80;85.80;;;;;;4975821;28;20517;-77
2024/03/28 04:30:53;;;;;;;6.75;4.00;;;12.80;85.80;;;;;;4976740;28;20491;-74
2024/03/28 04:33:18;;;;;;;6.75;4.10;;;12.80;85.80;;;;;;4977015;28;20031;-77
2024/03/28 04:35:47;;;;;;;6.78;4.10;;;12.70;85.70;;;;;;4976778;28;20042;-77
2024/03/28 04:38:14;;;;;;;6.78;4.07;;;12.70;85.70;;;;;;4975394;28;20026;-77
2024/03/28 04:40:40;;;;;;;7.03;4.22;;;12.80;85.80;;;;;;4975198;28;20026;-74
2024/03/28 04:43:06;;;;;;;6.63;4.05;;;12.80;85.80;;;;;;4976654;28;20026;-75
2024/03/28 04:45:31;;;;;;;6.43;3.83;;;12.80;85.80;;;;;;4975257;28;20026;-76
2024/03/28 04:47:57;;;;;;;7.00;4.25;;;12.80;85.80;;;;;;4976572;28;20033;-75
2024/03/28 04:50:22;;;;;;;7.05;4.32;;;12.80;85.80;;;;;;4974922;28;20034;-76
2024/03/28 04:52:49;;;;;;;7.05;4.20;;;12.80;85.70;;;;;;4975700;28;20102;-75
2024/03/28 04:55:14;;;;;;;6.68;3.92;;;12.70;85.70;;;;;;4976462;28;20027;-75
2024/03/28 04:57:40;;;;;;;6.97;4.20;;;12.80;85.70;;;;;;4976202;28;20037;-75
2024/03/28 05:00:10;;;;;;;6.60;3.83;;;12.80;85.70;;;;;;4974757;28;20369;-75
2024/03/28 05:02:36;;;;;;;6.80;4.15;;;12.80;85.70;;;;;;4975009;28;20034;-75
2024/03/28 05:05:06;;;;;;;6.57;4.03;;;12.80;85.70;;;;;;4975972;28;20027;-75
2024/03/28 05:07:32;;;;;;;6.35;3.75;;;12.80;85.80;;;;;;4990992;28;20034;-75
2024/03/28 05:09:58;;;;;;;6.13;3.33;;;12.70;85.70;;;;;;4975794;28;20062;-78
2024/03/28 05:12:24;;;;;;;6.63;4.07;;;12.80;85.70;;;;;;4974746;28;20031;-77
2024/03/28 05:14:50;;;;;;;6.35;3.67;;;12.80;85.80;;;;;;4974851;28;20041;-78
2024/03/28 05:17:16;;;;;;;6.60;3.92;;;12.80;85.80;;;;;;4990523;28;20034;-78
2024/03/28 05:19:41;;;;;;;6.70;3.80;;;12.80;85.80;;;;;;4975766;28;20387;-76
2024/03/28 05:22:07;;;;;;;7.15;4.10;;;12.80;85.80;;;;;;4975726;28;20042;-77
2024/03/28 05:24:33;;;;;;;6.78;3.97;;;12.80;85.80;;;;;;4974844;28;20030;-77
2024/03/28 05:27:00;;;;;;;7.20;4.40;;;12.80;85.80;;;;;;4976040;28;20538;-77
2024/03/28 05:29:26;;;;;;;6.80;3.70;;;12.70;85.70;;;;;;4974456;28;20126;-77
2024/03/28 05:31:51;;;;;;;6.75;4.05;;;12.70;85.70;;;;;;4974542;28;20523;-77
2024/03/28 05:34:17;;;;;;;6.85;4.07;;;12.80;85.80;;;;;;4972726;28;20037;-78
2024/03/28 05:36:43;;;;;;;7.68;4.28;;;12.80;85.80;;;;;;4972825;28;20651;-78
2024/03/28 05:39:08;;;;;;;6.20;3.70;;;12.70;85.70;;;;;;4971420;28;20027;-78
2024/03/28 05:41:35;;;;;;;6.63;3.80;;;12.80;85.80;;;;;;4973130;28;20019;-76
2024/03/28 05:44:02;;;;;;;6.90;4.03;;;12.70;85.70;;;;;;4980737;28;20394;-77
2024/03/28 05:46:27;;;;;;;6.75;4.15;;;12.80;85.80;;;;;;4971629;28;20034;-79
2024/03/28 05:48:54;;;;;;;6.88;4.18;;;12.80;85.80;;;;;;4973131;28;20034;-79
2024/03/28 05:51:20;;;;;;;6.53;3.83;;;12.70;85.70;;;;;;4972167;28;20088;-78
2024/03/28 05:53:48;;;;;;;6.93;3.85;;;12.70;85.70;;;;;;4972904;28;20110;-76
2024/03/28 05:56:15;;;;;;;6.53;3.75;;;12.80;85.80;;;;;;4971049;28;20031;-78
2024/03/28 05:58:40;;;;;;;6.50;4.05;;;12.70;85.70;;;;;;4972625;28;20038;-80
2024/03/28 06:01:06;;;;;;;6.40;3.83;;;12.80;86.30;;;;;;4972528;28;20019;-77
2024/03/28 06:03:32;;;;;;;6.70;3.80;;;12.80;85.80;;;;;;4973094;28;20019;-79
2024/03/28 06:05:58;;;;;;;7.32;4.40;;;12.70;85.70;;;;;;4970234;28;20035;-81
2024/03/28 06:08:23;;;;;;;6.30;3.90;;;12.80;85.80;;;;;;4971835;28;20527;-78
2024/03/28 06:10:49;;;;;;;6.30;3.78;;;12.70;85.80;;;;;;4968009;28;21246;-78
2024/03/28 06:13:17;;;;;;;6.70;4.10;;;12.80;85.80;;;;;;4970298;28;20031;-77
2024/03/28 06:15:43;;;;;;;6.70;4.00;;;12.70;85.70;;;;;;4969667;28;20484;-77
2024/03/28 06:18:12;;;;;;;7.28;4.40;;;12.70;85.70;;;;;;4967941;28;20033;-79
2024/03/28 06:20:39;;;;;;;5.95;3.60;;;12.70;86.20;;;;;;4968439;28;20038;-78
2024/03/28 06:23:05;;;;;;;6.13;3.38;;;12.90;85.80;;;;;;4962260;28;20019;-78
2024/03/28 06:25:31;;;;;;;6.30;3.72;;;12.60;85.70;;;;;;4970277;28;20111;-78
2024/03/28 06:27:57;;;;;;;5.95;3.42;;;12.80;85.80;;;;;;4968269;28;20457;-76
2024/03/28 06:30:26;;;;;;;6.60;3.90;;;12.80;85.80;;;;;;4968417;28;20026;-77
2024/03/28 06:32:55;;;;;;;6.57;3.83;;;12.80;85.70;;;;;;4969679;28;20022;-77
2024/03/28 06:35:22;;;;;;;6.55;3.97;;;12.80;85.50;;;;;;4971317;28;20482;-77
2024/03/28 06:37:48;;;;;;;7.00;4.28;;;12.80;85.50;;;;;;4961279;28;20054;-78
2024/03/28 06:40:13;;;;;;;6.28;3.78;;;12.70;85.40;;;;;;4966971;28;20051;-78
2024/03/28 06:42:39;;;;;;;6.65;3.85;;;12.80;85.30;;;;;;4967874;28;20486;-77
2024/03/28 06:45:05;;;;;;;6.35;3.72;;;12.70;85.40;;;;;;4969598;28;20030;-76
2024/03/28 06:47:31;;;;;;;6.55;3.85;;;12.80;85.30;;;;;;4968384;28;20037;-78
2024/03/28 06:49:56;;;;;;;9.63;4.78;;;12.80;85.10;;;;;;4968190;28;20030;-77
2024/03/28 06:52:26;;;;;;;7.25;4.00;;;12.80;85.80;;;;;;4967951;28;20403;-78
2024/03/28 06:54:51;;;;;;;7.65;4.15;;;12.80;85.20;;;;;;4968160;28;20061;-78
2024/03/28 06:57:17;;;;;;;6.40;3.78;;;12.90;85.30;;;;;;4968368;28;20491;-78
2024/03/28 06:59:43;;;;;;;6.60;3.72;;;12.80;85.10;;;;;;4967925;28;20049;-77
2024/03/28 07:02:09;;;;;;;7.43;4.25;;;12.80;85.20;;;;;;4969653;28;20100;-77
2024/03/28 07:04:34;;;;;;;7.13;3.70;;;12.80;85.40;;;;;;4968101;28;20118;-77
2024/03/28 07:07:00;;;;;;;7.53;4.15;;;12.70;85.30;;;;;;4969239;28;20078;-78
2024/03/28 07:09:25;;;;;;;6.70;4.10;;;12.90;85.50;;;;;;4967950;28;20085;-76
2024/03/28 07:11:51;;;;;;;5.57;3.33;;;12.80;85.60;;;;;;4969026;28;20058;-78
2024/03/28 07:14:18;;;;;;;6.13;3.92;;;12.90;85.60;;;;;;4982859;28;20089;-77
2024/03/28 07:16:44;;;;;;;6.30;3.53;;;12.80;85.50;;;;;;4987976;28;20108;-74
2024/03/28 07:19:10;;;;;;;6.15;3.63;;;12.90;85.60;;;;;;4987504;28;20022;-77
2024/03/28 07:21:36;;;;;;;7.05;3.45;;;12.90;85.60;;;;;;4987165;28;20487;-75
2024/03/28 07:24:02;;;;;;;6.70;3.53;;;12.90;85.50;;;;;;4988210;28;20018;-76
2024/03/28 07:26:28;;;;;;;5.90;3.45;;;13.00;85.40;;;;;;4985984;28;20033;-77
2024/03/28 07:28:53;;;;;;;6.60;3.80;;;13.00;85.30;;;;;;5002727;28;20033;-75
2024/03/28 07:31:20;;;;;;;6.90;3.58;;;13.00;85.20;;;;;;4988608;28;20122;-82
2024/03/28 07:33:45;;;;;;;6.60;3.90;;;13.00;85.20;;;;;;4988049;28;20022;-76
2024/03/28 07:36:11;;;;;;;6.75;3.60;;;13.10;85.10;;;;;;4987837;28;20084;-76
2024/03/28 07:38:37;;;;;;;6.70;3.88;;;13.00;85.50;;;;;;5004050;28;20072;-77
2024/03/28 07:41:03;;;;;;;5.88;3.38;;;12.90;84.90;;;;;;4988208;28;20034;-77
2024/03/28 07:43:29;;;;;;;6.65;3.45;;;13.10;85.10;;;;;;4987589;28;20030;-79
2024/03/28 07:46:05;;;;;;;6.35;3.70;;;13.00;84.90;;;;;;4988285;28;20030;-77
2024/03/28 07:48:33;;;;;;;6.22;3.40;;;13.10;84.90;;;;;;4988768;28;20034;-77
2024/03/28 07:51:00;;;;;;;7.28;3.50;;;13.10;84.80;;;;;;4988059;28;20030;-77
2024/03/28 07:53:27;;;;;;;7.55;4.00;;;13.20;84.70;;;;;;4989083;28;20100;-79
2024/03/28 07:55:53;;;;;;;6.10;3.65;;;13.20;84.60;;;;;;4987429;28;20057;-76
2024/03/28 07:58:19;;;;;;;6.05;3.30;;;13.30;84.60;;;;;;4988158;28;20062;-78
2024/03/28 08:00:45;;;;;;;8.23;3.58;;;13.30;84.50;;;;;;4988188;28;20091;-77
2024/03/28 08:03:14;;;;;;;6.03;3.47;;;13.30;84.30;;;;;;4985768;28;20034;-78
2024/03/28 08:05:40;;;;;;;5.75;3.50;;;13.30;84.20;;;;;;4968656;28;20503;-77
2024/03/28 08:08:06;;;;;;;6.82;3.78;;;13.40;84.20;;;;;;4969884;28;20058;-77
2024/03/28 08:10:32;;;;;;;5.45;2.97;;;13.40;84.00;;;;;;4967359;28;20027;-77
2024/03/28 08:12:58;;;;;;;6.60;3.70;;;13.40;83.90;;;;;;4969484;28;20066;-77
2024/03/28 08:15:25;;;;;;;6.60;3.30;;;13.50;83.70;;;;;;4967964;28;20617;-79
2024/03/28 08:17:51;;;;;;;6.68;3.10;;;13.40;83.50;;;;;;4969419;28;20039;-77
2024/03/28 08:20:17;;;;;;;7.93;3.70;;;13.60;83.50;;;;;;4983847;28;20121;-78
2024/03/28 08:22:43;;;;;;;8.15;3.05;;;13.60;83.70;;;;;;4969284;28;20034;-78
2024/03/28 08:25:09;;;;;;;6.45;3.17;;;13.60;83.30;;;;;;4968201;28;20031;-79
2024/03/28 08:27:36;;;;;;;6.10;3.20;;;13.60;83.20;;;;;;4969949;28;20030;-78
2024/03/28 08:30:02;;;;;;;6.78;3.53;;;13.70;83.20;;;;;;4973248;28;20070;-76
2024/03/28 08:32:29;;;;;;;5.65;3.42;;;13.70;83.10;;;;;;4972735;28;20495;-78
2024/03/28 08:34:55;;;;;;;5.68;3.38;;;13.70;83.10;;;;;;4971899;28;20117;-78
2024/03/28 08:37:20;;;;;;;5.47;3.20;;;13.70;83.00;;;;;;4971776;28;20773;-77
2024/03/28 08:39:46;;;;;;;5.93;3.47;;;13.80;83.00;;;;;;4973221;28;20435;-78
2024/03/28 08:42:11;;;;;;;5.47;3.00;;;13.80;82.90;;;;;;4971373;28;20121;-78
2024/03/28 08:44:37;;;;;;;5.05;3.00;;;13.80;82.90;;;;;;4972348;28;20829;-78
2024/03/28 08:47:03;;;;;;;5.35;3.08;;;13.90;82.90;;;;;;4972944;28;20323;-78
2024/03/28 08:49:29;;;;;;;5.65;3.17;;;13.90;82.80;;;;;;4970843;28;20037;-78
2024/03/28 08:51:54;;;;;;;5.45;3.08;;;13.90;82.80;;;;;;4968319;28;20030;-78
2024/03/28 08:54:22;;;;;;;5.47;3.15;;;13.90;82.60;;;;;;4960724;28;20864;-76
2024/03/28 08:56:48;;;;;;;5.82;3.47;;;14.00;82.60;;;;;;4966691;28;20023;-77
2024/03/28 08:59:14;;;;;;;4.88;2.72;;;14.00;83.10;;;;;;4965868;28;20085;-77
2024/03/28 09:01:41;;;;;;;5.78;3.10;;;13.90;82.40;;;;;;4971458;28;20029;-77
2024/03/28 09:04:07;;;;;;;5.50;3.17;;;14.00;82.40;;;;;;4969411;28;20050;-77
2024/03/28 09:06:33;;;;;;;5.03;2.90;;;14.10;82.40;;;;;;4969958;28;20026;-77
2024/03/28 09:09:00;;;;;;;5.22;2.95;;;14.10;82.50;;;;;;4969481;28;20027;-77
2024/03/28 09:11:28;;;;;;;4.32;2.38;;;14.10;82.40;;;;;;4971676;28;20030;-77
2024/03/28 09:13:54;;;;;;;5.65;2.80;;;13.90;82.30;;;;;;4968663;28;20117;-77
2024/03/28 09:16:20;;;;;;;4.82;2.80;;;14.10;82.50;;;;;;4970092;28;20038;-78
2024/03/28 09:18:45;;;;;;;5.25;2.78;;;14.00;82.40;;;;;;4968279;28;20034;-77
2024/03/28 09:21:11;;;;;;;5.20;2.83;;;14.00;82.40;;;;;;4967344;28;20468;-78
2024/03/28 09:23:38;;;;;;;4.72;2.60;;;14.10;82.50;;;;;;4969591;28;20054;-77
2024/03/28 09:26:03;;;;;;;4.82;2.65;;;14.00;82.60;;;;;;4969510;28;20086;-78
2024/03/28 09:28:30;;;;;;;4.85;2.90;;;14.00;82.80;;;;;;4969230;28;20038;-77
2024/03/28 09:30:56;;;;;;;4.10;2.40;;;13.90;82.90;;;;;;4969000;28;20041;-77
2024/03/28 09:33:21;;;;;;;4.80;2.55;;;13.90;83.10;;;;;;4970351;28;20038;-77
2024/03/28 09:35:47;;;;;;;4.80;2.65;;;13.80;83.20;;;;;;4970146;28;20035;-78
2024/03/28 09:38:13;;;;;;;5.40;2.95;;;13.80;83.30;;;;;;4970164;28;20057;-77
2024/03/28 09:41:20;;;;;;;4.97;2.58;;;13.60;83.30;;;;;;4969841;28;20407;-77
2024/03/28 09:43:46;;;;;;;4.53;2.50;;;13.80;83.50;;;;;;4970313;28;20439;-77
2024/03/28 09:46:14;;;;;;;4.60;2.50;;;13.80;83.20;;;;;;4969719;28;20070;-77
2024/03/28 09:48:41;;;;;;;3.85;2.20;;;13.80;83.10;;;;;;4969228;28;20031;-78
2024/03/28 09:51:08;;;;;;;4.30;2.60;;;13.80;83.10;;;;;;4970008;28;20500;-77
2024/03/28 09:53:35;;;;;;;5.30;2.78;;;13.80;83.10;;;;;;4969720;28;20062;-78
2024/03/28 09:56:01;;;;;;;4.40;2.50;;;13.80;83.10;;;;;;4970573;28;20035;-78
2024/03/28 09:58:27;;;;;;;4.05;2.08;;;13.70;83.20;;;;;;4970149;28;20030;-77
2024/03/28 10:00:55;;;;;;;3.78;2.22;;;13.70;83.30;;;;;;4970394;28;20041;-78
2024/03/28 10:03:32;;;;;;;4.60;2.55;;;13.60;83.40;;;;;;4969972;28;20033;-77
2024/03/28 10:05:59;;;;;;;4.00;2.17;;;13.60;83.50;;;;;;4969773;28;20120;-77
2024/03/28 10:08:28;;;;;;;4.20;2.30;;;13.70;83.70;;;;;;4969859;28;20034;-77
2024/03/28 10:10:54;;;;;;;4.72;2.03;;;13.60;83.70;;;;;;4971048;28;20030;-77
2024/03/28 10:13:41;;;;;;;3.80;2.05;;;13.70;83.90;;;;;;4970915;28;20029;-77
2024/03/28 10:16:07;;;;;;;4.47;2.33;;;13.60;83.90;;;;;;4971702;28;20038;-77
2024/03/28 10:18:33;;;;;;;3.92;2.20;;;13.50;84.00;;;;;;4970194;28;20023;-77
2024/03/28 10:21:02;;;;;;;4.72;2.20;;;13.50;84.10;;;;;;4970719;28;20042;-77
2024/03/28 10:23:28;;;;;;;3.85;2.05;;;13.50;84.10;;;;;;4969195;28;20027;-77
2024/03/28 10:25:54;;;;;;;3.50;2.00;;;13.40;84.10;;;;;;4969150;28;20033;-77
2024/03/28 10:28:23;;;;;;;3.80;1.98;;;13.50;84.20;;;;;;4971327;28;20085;-77
2024/03/28 10:30:53;;;;;;;3.80;2.15;;;13.50;84.20;;;;;;4969793;28;20022;-78
2024/03/28 10:33:19;;;;;;;3.45;1.88;;;13.50;84.20;;;;;;4970813;28;20031;-77
2024/03/28 10:35:59;;;;;;;3.15;1.70;;;13.50;84.20;;;;;;4969377;28;20067;-77
2024/03/28 10:38:24;;;;;;;4.20;2.10;;;13.50;84.30;;;;;;4968975;28;20032;-78
2024/03/28 10:40:54;;;;;;;3.40;1.95;;;13.50;84.20;;;;;;4969687;28;20026;-78
2024/03/28 10:43:23;;;;;;;3.53;1.95;;;13.50;84.30;;;;;;4969188;28;20019;-77
2024/03/28 10:45:51;;;;;;;3.47;1.92;;;13.30;84.20;;;;;;4969052;28;20085;-78
2024/03/28 10:48:18;;;;;;;3.00;1.75;;;13.50;84.40;;;;;;4969542;28;20033;-77
2024/03/28 10:50:55;;;;;;;3.33;1.75;;;13.50;84.40;;;;;;4970236;28;20023;-77
2024/03/28 10:53:29;;;;;;;2.95;1.70;;;13.50;84.40;;;;;;4970706;28;20050;-78
2024/03/28 10:56:02;;;;;;;3.80;1.73;;;13.50;84.40;;;;;;4969523;28;20023;-78
2024/03/28 10:58:30;;;;;;;3.05;1.60;;;13.40;84.40;;;;;;4969932;28;20034;-77
2024/03/28 11:00:58;;;;;;;2.92;1.67;;;13.40;84.40;;;;;;4969120;28;20117;-78
2024/03/28 11:03:25;;;;;;;3.28;1.63;;;13.40;84.40;;;;;;4969420;28;20019;-78
2024/03/28 11:05:53;;;;;;;3.20;1.70;;;13.50;84.50;;;;;;4969344;28;20541;-78
2024/03/28 11:08:20;;;;;;;2.42;1.45;;;13.40;84.30;;;;;;4970026;28;20054;-77
2024/03/28 11:10:46;;;;;;;3.05;1.65;;;13.30;84.30;;;;;;4968598;28;20015;-77
2024/03/28 11:13:12;;;;;;;2.78;1.52;;;13.40;84.50;;;;;;4970360;28;20072;-77
2024/03/28 11:15:37;;;;;;;2.50;1.50;;;13.30;84.40;;;;;;4968513;28;20138;-77
2024/03/28 11:18:03;;;;;;;2.63;1.33;;;13.40;84.60;;;;;;4969923;28;20103;-77
2024/03/28 11:20:29;;;;;;;2.60;1.50;;;13.40;84.60;;;;;;4969800;28;20422;-76
2024/03/28 11:23:03;;;;;;;2.10;1.25;;;13.30;84.40;;;;;;4970433;28;20026;-81
2024/03/28 11:25:37;;;;;;;2.88;1.70;;;13.30;84.50;;;;;;4971950;28;20054;-77
2024/03/28 11:28:05;;;;;;;2.83;1.48;;;13.30;84.60;;;;;;4970365;28;20038;-78
2024/03/28 11:30:34;;;;;;;1.92;1.30;;;13.30;84.50;;;;;;4968721;28;20081;-77
2024/03/28 11:33:29;;;;;;;2.13;1.30;;;13.30;84.50;;;;;;4969449;28;20031;-77
2024/03/28 11:36:02;;;;;;;2.53;1.40;;;13.30;84.70;;;;;;4967302;28;20027;-77
2024/03/28 11:38:28;;;;;;;1.92;1.30;;;13.30;84.70;;;;;;4967457;28;20023;-77
2024/03/28 11:40:54;;;;;;;2.30;1.42;;;13.30;84.60;;;;;;4967055;28;20507;-77
2024/03/28 11:43:22;;;;;;;1.92;1.27;;;13.30;84.60;;;;;;4969617;28;20027;-78
2024/03/28 11:45:48;;;;;;;2.17;1.23;;;13.30;84.70;;;;;;4969279;28;20026;-78
2024/03/28 11:48:14;;;;;;;2.15;1.20;;;13.20;84.70;;;;;;4977223;28;20109;-77
2024/03/28 11:50:43;;;;;;;2.28;1.23;;;13.30;84.80;;;;;;4985865;28;20575;-77
2024/03/28 11:53:10;;;;;;;1.98;1.20;;;13.30;84.90;;;;;;4986313;28;20030;-76
2024/03/28 11:55:46;;;;;;;2.33;1.20;;;13.30;84.70;;;;;;4984808;28;20034;-77
2024/03/28 11:58:27;;;;;;;1.65;1.02;;;13.30;84.90;;;;;;4985887;28;20034;-77
2024/03/28 12:01:02;;;;;;;2.15;1.10;;;13.30;84.90;;;;;;4987103;28;20034;-78
2024/03/28 12:03:29;;;;;;;1.45;1.05;;;13.20;84.90;;;;;;4974235;28;20039;-76
2024/03/28 12:05:56;;;;;;;1.95;1.23;;;13.20;85.00;;;;;;4969497;28;20594;-77
2024/03/28 12:08:24;;;;;;;1.73;1.02;;;13.30;85.00;;;;;;4969774;28;20030;-77
2024/03/28 12:10:50;;;;;;;2.65;1.20;;;13.20;84.90;;;;;;4970427;28;20546;-78
2024/03/28 12:13:16;;;;;;;2.25;1.20;;;13.20;85.00;;;;;;4971779;28;20035;-77
2024/03/28 12:15:42;;;;;;;2.50;1.30;;;13.20;84.80;;;;;;4971753;28;20034;-77
2024/03/28 12:18:07;;;;;;;2.15;1.33;;;13.20;85.00;;;;;;4971401;28;20033;-77
2024/03/28 12:20:33;;;;;;;1.67;1.08;;;13.20;84.90;;;;;;4971316;28;20126;-76
2024/03/28 12:23:03;;;;;;;1.92;1.10;;;13.20;85.00;;;;;;4972146;28;20027;-77
2024/03/28 12:25:29;;;;;;;1.63;1.10;;;13.20;85.00;;;;;;4971439;28;20399;-77
2024/03/28 12:28:00;;;;;;;1.80;1.10;;;13.20;85.10;;;;;;4969428;28;20038;-76
2024/03/28 12:30:26;;;;;;;2.72;1.02;;;13.20;85.10;;;;;;4970012;28;20026;-77
2024/03/28 12:33:05;;;;;;;1.40;0.98;;;13.20;85.10;;;;;;4970352;28;20035;-78
2024/03/28 12:35:32;;;;;;;2.53;1.13;;;13.20;85.10;;;;;;4970468;28;20109;-76
2024/03/28 12:37:58;;;;;;;1.58;1.10;;;13.20;84.90;;;;;;4969751;28;20030;-77
2024/03/28 12:40:24;;;;;;;1.65;1.00;;;13.20;84.80;;;;;;4970312;28;20030;-76
2024/03/28 12:42:52;;;;;;;1.27;0.90;;;13.20;84.90;;;;;;4968887;28;20027;-76
2024/03/28 12:45:20;;;;;;;1.77;1.05;;;13.20;84.80;;;;;;4970543;28;20035;-77
2024/03/28 12:47:46;;;;;;;1.98;1.05;;;13.20;85.00;;;;;;4970632;28;20439;-78
2024/03/28 12:50:14;;;;;;;1.38;0.88;;;13.30;84.90;;;;;;4970424;28;20061;-76
2024/03/28 12:52:47;;;;;;;1.30;0.90;;;13.20;84.70;;;;;;4969713;28;20031;-78
2024/03/28 12:55:13;;;;;;;1.70;1.02;;;13.10;84.80;;;;;;4970826;28;20151;-76
2024/03/28 12:57:40;;;;;;;1.63;0.90;;;13.20;84.90;;;;;;4970422;28;20066;-76